sensor_id;sensor_type;location;lat;lon;timestamp;pressure;altitude;pressure_sealevel;temperature;humidity
72024;BME280;59889;50.700;5.440;2024-01-16T00:01:03;99455.74;;;18.16;30.34
72024;BME280;59889;50.700;5.440;2024-01-16T00:03:28;99458.23;;;18.11;30.39
72024;BME280;59889;50.700;5.440;2024-01-16T00:05:53;99458.60;;;18.34;30.40
72024;BME280;59889;50.700;5.440;2024-01-16T00:08:19;99455.40;;;18.40;30.35
72024;BME280;59889;50.700;5.440;2024-01-16T00:10:43;99454.24;;;18.10;30.41
72024;BME280;59889;50.700;5.440;2024-01-16T00:13:08;99456.88;;;18.09;30.40
72024;BME280;59889;50.700;5.440;2024-01-16T00:15:34;99458.67;;;18.09;30.42
72024;BME280;59889;50.700;5.440;2024-01-16T00:17:59;99463.41;;;18.28;30.47
72024;BME280;59889;50.700;5.440;2024-01-16T00:20:24;99460.19;;;18.11;30.38
72024;BME280;59889;50.700;5.440;2024-01-16T00:22:49;99463.04;;;18.39;30.35
72024;BME280;59889;50.700;5.440;2024-01-16T00:25:14;99462.70;;;18.28;30.45
72024;BME280;59889;50.700;5.440;2024-01-16T00:27:39;99463.17;;;18.15;30.34
72024;BME280;59889;50.700;5.440;2024-01-16T00:30:05;99464.51;;;18.15;30.33
72024;BME280;59889;50.700;5.440;2024-01-16T00:32:29;99464.47;;;18.07;30.42
72024;BME280;59889;50.700;5.440;2024-01-16T00:34:55;99471.23;;;18.11;30.39
72024;BME280;59889;50.700;5.440;2024-01-16T00:37:19;99470.25;;;18.59;30.34
72024;BME280;59889;50.700;5.440;2024-01-16T00:39:45;99474.31;;;18.13;30.35
72024;BME280;59889;50.700;5.440;2024-01-16T00:42:10;99482.80;;;18.05;30.45
72024;BME280;59889;50.700;5.440;2024-01-16T00:44:35;99481.28;;;18.10;30.38
72024;BME280;59889;50.700;5.440;2024-01-16T00:47:00;99483.29;;;18.03;30.45
72024;BME280;59889;50.700;5.440;2024-01-16T00:49:25;99480.70;;;18.36;30.35
72024;BME280;59889;50.700;5.440;2024-01-16T00:51:50;99483.38;;;18.60;30.35
72024;BME280;59889;50.700;5.440;2024-01-16T00:54:15;99486.26;;;18.34;30.36
72024;BME280;59889;50.700;5.440;2024-01-16T00:56:42;99485.84;;;18.15;30.32
72024;BME280;59889;50.700;5.440;2024-01-16T00:59:06;99489.23;;;18.08;30.40
72024;BME280;59889;50.700;5.440;2024-01-16T01:01:31;99489.12;;;18.01;30.46
72024;BME280;59889;50.700;5.440;2024-01-16T01:03:56;99489.13;;;18.26;30.44
72024;BME280;59889;50.700;5.440;2024-01-16T01:06:21;99491.45;;;18.04;30.43
72024;BME280;59889;50.700;5.440;2024-01-16T01:08:46;99495.48;;;18.16;30.31
72024;BME280;59889;50.700;5.440;2024-01-16T01:11:11;99495.61;;;18.03;30.45
72024;BME280;59889;50.700;5.440;2024-01-16T01:13:36;99495.97;;;18.08;30.36
72024;BME280;59889;50.700;5.440;2024-01-16T01:16:01;99495.52;;;18.21;30.49
72024;BME280;59889;50.700;5.440;2024-01-16T01:18:26;99497.03;;;18.05;30.42
72024;BME280;59889;50.700;5.440;2024-01-16T01:20:51;99497.37;;;17.91;30.56
72024;BME280;59889;50.700;5.440;2024-01-16T01:23:17;99496.97;;;17.98;30.50
72024;BME280;59889;50.700;5.440;2024-01-16T01:25:42;99498.34;;;17.97;30.50
72024;BME280;59889;50.700;5.440;2024-01-16T01:28:07;99500.10;;;18.22;30.49
72024;BME280;59889;50.700;5.440;2024-01-16T01:30:32;99504.62;;;18.26;30.46
72024;BME280;59889;50.700;5.440;2024-01-16T01:32:57;99506.02;;;17.97;30.49
72024;BME280;59889;50.700;5.440;2024-01-16T01:35:22;99505.39;;;18.11;30.36
72024;BME280;59889;50.700;5.440;2024-01-16T01:37:47;99502.10;;;18.25;30.46
72024;BME280;59889;50.700;5.440;2024-01-16T01:40:12;99508.11;;;18.02;30.46
72024;BME280;59889;50.700;5.440;2024-01-16T01:42:40;99510.15;;;17.93;30.54
72024;BME280;59889;50.700;5.440;2024-01-16T01:45:03;99509.15;;;18.50;30.45
72024;BME280;59889;50.700;5.440;2024-01-16T01:47:29;99513.34;;;18.19;30.52
72024;BME280;59889;50.700;5.440;2024-01-16T01:49:53;99513.90;;;17.99;30.48
72024;BME280;59889;50.700;5.440;2024-01-16T01:52:18;99513.68;;;17.96;30.50
72024;BME280;59889;50.700;5.440;2024-01-16T01:54:45;99514.57;;;18.20;30.50
72024;BME280;59889;50.700;5.440;2024-01-16T01:57:08;99514.22;;;18.23;30.47
72024;BME280;59889;50.700;5.440;2024-01-16T01:59:34;99513.38;;;18.00;30.47
72024;BME280;59889;50.700;5.440;2024-01-16T02:01:59;99516.39;;;17.93;30.53
72024;BME280;59889;50.700;5.440;2024-01-16T02:04:24;99514.79;;;17.93;30.53
72024;BME280;59889;50.700;5.440;2024-01-16T02:06:49;99510.75;;;18.17;30.53
72024;BME280;59889;50.700;5.440;2024-01-16T02:09:15;99510.68;;;17.92;30.54
72024;BME280;59889;50.700;5.440;2024-01-16T02:11:39;99510.02;;;18.25;30.46
72024;BME280;59889;50.700;5.440;2024-01-16T02:14:04;99507.95;;;18.17;30.51
72024;BME280;59889;50.700;5.440;2024-01-16T02:16:35;99508.35;;;18.04;30.41
72024;BME280;59889;50.700;5.440;2024-01-16T02:18:54;99510.11;;;17.96;30.49
72024;BME280;59889;50.700;5.440;2024-01-16T02:21:21;99508.49;;;18.02;30.43
72024;BME280;59889;50.700;5.440;2024-01-16T02:23:44;99514.24;;;18.29;30.41
72024;BME280;59889;50.700;5.440;2024-01-16T02:26:10;99512.06;;;18.25;30.43
72024;BME280;59889;50.700;5.440;2024-01-16T02:28:35;99512.25;;;17.97;30.49
72024;BME280;59889;50.700;5.440;2024-01-16T02:31:00;99513.69;;;18.29;30.41
72024;BME280;59889;50.700;5.440;2024-01-16T02:33:25;99516.64;;;18.06;30.40
72024;BME280;59889;50.700;5.440;2024-01-16T02:35:50;99513.06;;;18.25;30.44
72024;BME280;59889;50.700;5.440;2024-01-16T02:38:15;99512.09;;;18.05;30.41
72024;BME280;59889;50.700;5.440;2024-01-16T02:40:40;99510.70;;;17.98;30.48
72024;BME280;59889;50.700;5.440;2024-01-16T02:43:06;99514.09;;;18.23;30.46
72024;BME280;59889;50.700;5.440;2024-01-16T02:45:30;99508.92;;;18.17;30.50
72024;BME280;59889;50.700;5.440;2024-01-16T02:47:56;99508.30;;;18.43;30.49
72024;BME280;59889;50.700;5.440;2024-01-16T02:50:21;99506.69;;;17.95;30.49
72024;BME280;59889;50.700;5.440;2024-01-16T02:52:46;99502.67;;;18.21;30.47
72024;BME280;59889;50.700;5.440;2024-01-16T02:55:11;99496.79;;;18.25;30.44
72024;BME280;59889;50.700;5.440;2024-01-16T02:57:36;99498.15;;;17.94;30.50
72024;BME280;59889;50.700;5.440;2024-01-16T03:00:01;99500.58;;;18.18;30.49
72024;BME280;59889;50.700;5.440;2024-01-16T03:02:26;99498.33;;;17.98;30.46
72024;BME280;59889;50.700;5.440;2024-01-16T03:04:51;99491.58;;;17.96;30.47
72024;BME280;59889;50.700;5.440;2024-01-16T03:07:17;99484.44;;;17.93;30.49
72024;BME280;59889;50.700;5.440;2024-01-16T03:09:42;99482.06;;;17.85;30.59
72024;BME280;59889;50.700;5.440;2024-01-16T03:12:07;99483.61;;;18.18;30.49
72024;BME280;59889;50.700;5.440;2024-01-16T03:14:32;99488.64;;;18.22;30.45
72024;BME280;59889;50.700;5.440;2024-01-16T03:16:57;99482.92;;;17.98;30.45
72024;BME280;59889;50.700;5.440;2024-01-16T03:19:22;99479.31;;;18.08;30.32
72024;BME280;59889;50.700;5.440;2024-01-16T03:21:47;99482.72;;;18.06;30.35
72024;BME280;59889;50.700;5.440;2024-01-16T03:24:12;99484.92;;;18.16;30.47
72024;BME280;59889;50.700;5.440;2024-01-16T03:26:37;99483.93;;;18.05;30.37
72024;BME280;59889;50.700;5.440;2024-01-16T03:29:02;99484.87;;;17.95;30.47
72024;BME280;59889;50.700;5.440;2024-01-16T03:31:28;99481.85;;;18.00;30.42
72024;BME280;59889;50.700;5.440;2024-01-16T03:33:53;99480.27;;;18.31;30.32
72024;BME280;59889;50.700;5.440;2024-01-16T03:36:18;99483.26;;;18.08;30.32
72024;BME280;59889;50.700;5.440;2024-01-16T03:38:43;99485.42;;;18.10;30.30
72024;BME280;59889;50.700;5.440;2024-01-16T03:41:08;99480.95;;;18.13;30.24
72024;BME280;59889;50.700;5.440;2024-01-16T03:43:34;99479.59;;;18.12;30.24
72024;BME280;59889;50.700;5.440;2024-01-16T03:45:58;99479.19;;;18.36;30.25
72024;BME280;59889;50.700;5.440;2024-01-16T03:48:24;99479.71;;;18.00;30.38
72024;BME280;59889;50.700;5.440;2024-01-16T03:50:49;99480.71;;;18.13;30.48
72024;BME280;59889;50.700;5.440;2024-01-16T03:53:14;99480.25;;;18.25;30.38
72024;BME280;59889;50.700;5.440;2024-01-16T03:55:39;99476.64;;;18.42;30.43
72024;BME280;59889;50.700;5.440;2024-01-16T03:58:04;99477.47;;;18.19;30.43
72024;BME280;59889;50.700;5.440;2024-01-16T04:00:29;99477.25;;;18.01;30.35
72024;BME280;59889;50.700;5.440;2024-01-16T04:02:54;99472.52;;;18.20;30.40
72024;BME280;59889;50.700;5.440;2024-01-16T04:05:19;99470.80;;;17.92;30.45
72024;BME280;59889;50.700;5.440;2024-01-16T04:07:45;99468.68;;;18.18;30.42
72024;BME280;59889;50.700;5.440;2024-01-16T04:10:09;99462.93;;;18.08;30.51
72024;BME280;59889;50.700;5.440;2024-01-16T04:12:35;99462.39;;;18.15;30.44
72024;BME280;59889;50.700;5.440;2024-01-16T04:15:00;99461.98;;;17.90;30.46
72024;BME280;59889;50.700;5.440;2024-01-16T04:17:25;99458.96;;;18.08;30.50
72024;BME280;59889;50.700;5.440;2024-01-16T04:19:50;99461.50;;;17.84;30.50
72024;BME280;59889;50.700;5.440;2024-01-16T04:22:15;99457.69;;;18.10;30.48
72024;BME280;59889;50.700;5.440;2024-01-16T04:24:40;99455.13;;;18.04;30.55
72024;BME280;59889;50.700;5.440;2024-01-16T04:27:05;99448.95;;;17.87;30.47
72024;BME280;59889;50.700;5.440;2024-01-16T04:29:30;99444.74;;;18.39;30.44
72024;BME280;59889;50.700;5.440;2024-01-16T04:31:56;99445.66;;;18.06;30.53
72024;BME280;59889;50.700;5.440;2024-01-16T04:34:21;99445.93;;;17.93;30.43
72024;BME280;59889;50.700;5.440;2024-01-16T04:36:46;99446.93;;;18.38;30.45
72024;BME280;59889;50.700;5.440;2024-01-16T04:39:11;99446.01;;;18.30;30.51
72024;BME280;59889;50.700;5.440;2024-01-16T04:41:36;99447.03;;;17.83;30.51
72024;BME280;59889;50.700;5.440;2024-01-16T04:44:01;99445.44;;;18.38;30.45
72024;BME280;59889;50.700;5.440;2024-01-16T04:46:26;99446.02;;;17.81;30.53
72024;BME280;59889;50.700;5.440;2024-01-16T04:48:51;99441.73;;;18.21;30.38
72024;BME280;59889;50.700;5.440;2024-01-16T04:51:16;99437.12;;;17.89;30.44
72024;BME280;59889;50.700;5.440;2024-01-16T04:53:42;99436.93;;;18.23;30.36
72024;BME280;59889;50.700;5.440;2024-01-16T04:56:07;99438.06;;;18.09;30.48
72024;BME280;59889;50.700;5.440;2024-01-16T04:58:32;99436.53;;;17.95;30.40
72024;BME280;59889;50.700;5.440;2024-01-16T05:00:57;99426.42;;;17.84;30.49
72024;BME280;59889;50.700;5.440;2024-01-16T05:03:23;99424.52;;;17.95;30.41
72024;BME280;59889;50.700;5.440;2024-01-16T05:05:47;99426.65;;;18.15;29.95
72024;BME280;59889;50.700;5.440;2024-01-16T05:08:12;99426.74;;;18.25;29.27
72024;BME280;59889;50.700;5.440;2024-01-16T05:10:37;99428.16;;;17.93;29.21
72024;BME280;59889;50.700;5.440;2024-01-16T05:13:03;99430.76;;;18.09;28.97
72024;BME280;59889;50.700;5.440;2024-01-16T05:15:28;99424.70;;;17.46;28.76
72024;BME280;59889;50.700;5.440;2024-01-16T05:17:53;99422.95;;;17.90;28.64
72024;BME280;59889;50.700;5.440;2024-01-16T05:20:18;99419.33;;;17.84;28.51
72024;BME280;59889;50.700;5.440;2024-01-16T05:22:43;99422.97;;;17.65;28.34
72024;BME280;59889;50.700;5.440;2024-01-16T05:25:08;99421.73;;;17.68;28.19
72024;BME280;59889;50.700;5.440;2024-01-16T05:27:33;99419.48;;;17.66;27.94
72024;BME280;59889;50.700;5.440;2024-01-16T05:30:00;99418.39;;;17.79;28.09
72024;BME280;59889;50.700;5.440;2024-01-16T05:32:24;99419.71;;;17.78;28.74
72024;BME280;59889;50.700;5.440;2024-01-16T05:34:49;99421.10;;;17.79;29.02
72024;BME280;59889;50.700;5.440;2024-01-16T05:37:14;99418.74;;;17.79;29.14
72024;BME280;59889;50.700;5.440;2024-01-16T05:39:40;99423.84;;;17.57;29.22
72024;BME280;59889;50.700;5.440;2024-01-16T05:42:05;99425.82;;;17.89;29.29
72024;BME280;59889;50.700;5.440;2024-01-16T05:44:30;99422.62;;;17.87;29.27
72024;BME280;59889;50.700;5.440;2024-01-16T05:46:56;99423.46;;;17.94;29.26
72024;BME280;59889;50.700;5.440;2024-01-16T05:49:21;99421.80;;;17.43;29.25
72024;BME280;59889;50.700;5.440;2024-01-16T05:51:46;99422.81;;;17.82;29.49
72024;BME280;59889;50.700;5.440;2024-01-16T05:54:12;99424.12;;;17.62;29.44
72024;BME280;59889;50.700;5.440;2024-01-16T05:56:37;99425.84;;;17.89;29.50
72024;BME280;59889;50.700;5.440;2024-01-16T05:59:02;99425.17;;;17.87;29.47
72024;BME280;59889;50.700;5.440;2024-01-16T06:01:27;99421.51;;;17.79;29.63
72024;BME280;59889;50.700;5.440;2024-01-16T06:03:52;99417.06;;;17.93;29.59
72024;BME280;59889;50.700;5.440;2024-01-16T06:06:18;99418.38;;;17.89;29.72
72024;BME280;59889;50.700;5.440;2024-01-16T06:08:43;99412.86;;;17.77;30.08
72024;BME280;59889;50.700;5.440;2024-01-16T06:11:08;99409.85;;;17.86;30.13
72024;BME280;59889;50.700;5.440;2024-01-16T06:13:34;99411.86;;;17.88;30.08
72024;BME280;59889;50.700;5.440;2024-01-16T06:15:59;99411.95;;;17.79;30.16
72024;BME280;59889;50.700;5.440;2024-01-16T06:18:25;99411.56;;;17.55;30.14
72024;BME280;59889;50.700;5.440;2024-01-16T06:20:50;99412.23;;;17.81;30.05
72024;BME280;59889;50.700;5.440;2024-01-16T06:23:15;99416.41;;;17.87;30.02
72024;BME280;59889;50.700;5.440;2024-01-16T06:25:40;99418.05;;;17.55;30.04
72024;BME280;59889;50.700;5.440;2024-01-16T06:28:05;99416.89;;;17.82;30.00
72024;BME280;59889;50.700;5.440;2024-01-16T06:30:30;99414.44;;;17.64;29.99
72024;BME280;59889;50.700;5.440;2024-01-16T06:32:57;99413.72;;;17.64;30.04
72024;BME280;59889;50.700;5.440;2024-01-16T06:35:22;99413.75;;;17.45;30.01
72024;BME280;59889;50.700;5.440;2024-01-16T06:37:47;99415.79;;;17.98;30.00
72024;BME280;59889;50.700;5.440;2024-01-16T06:40:12;99419.38;;;17.97;30.04
72024;BME280;59889;50.700;5.440;2024-01-16T06:42:38;99423.00;;;17.77;30.04
72024;BME280;59889;50.700;5.440;2024-01-16T06:45:04;99420.08;;;17.76;30.09
72024;BME280;59889;50.700;5.440;2024-01-16T06:47:28;99420.90;;;17.70;30.16
72024;BME280;59889;50.700;5.440;2024-01-16T06:49:54;99425.33;;;17.67;30.23
72024;BME280;59889;50.700;5.440;2024-01-16T06:52:19;99427.89;;;17.94;30.24
72024;BME280;59889;50.700;5.440;2024-01-16T06:54:44;99426.23;;;17.85;30.32
72024;BME280;59889;50.700;5.440;2024-01-16T06:57:09;99431.39;;;18.03;30.19
72024;BME280;59889;50.700;5.440;2024-01-16T06:59:34;99432.20;;;18.17;30.29
72024;BME280;59889;50.700;5.440;2024-01-16T07:02:00;99430.51;;;17.88;30.33
72024;BME280;59889;50.700;5.440;2024-01-16T07:04:25;99432.43;;;17.71;30.29
72024;BME280;59889;50.700;5.440;2024-01-16T07:06:50;99432.94;;;17.71;30.26
72024;BME280;59889;50.700;5.440;2024-01-16T07:09:15;99433.24;;;17.91;30.37
72024;BME280;59889;50.700;5.440;2024-01-16T07:11:40;99431.31;;;17.37;30.52
72024;BME280;59889;50.700;5.440;2024-01-16T07:14:07;99433.09;;;18.12;30.51
72024;BME280;59889;50.700;5.440;2024-01-16T07:16:31;99437.87;;;17.93;30.47
72024;BME280;59889;50.700;5.440;2024-01-16T07:18:56;99443.77;;;17.84;30.41
72024;BME280;59889;50.700;5.440;2024-01-16T07:21:21;99439.48;;;17.36;30.35
72024;BME280;59889;50.700;5.440;2024-01-16T07:23:46;99437.69;;;17.84;30.29
72024;BME280;59889;50.700;5.440;2024-01-16T07:26:11;99442.73;;;17.77;30.27
72024;BME280;59889;50.700;5.440;2024-01-16T07:28:36;99445.13;;;17.76;30.25
72024;BME280;59889;50.700;5.440;2024-01-16T07:31:01;99441.25;;;18.08;30.03
72024;BME280;59889;50.700;5.440;2024-01-16T07:33:27;99444.38;;;17.78;30.00
72024;BME280;59889;50.700;5.440;2024-01-16T07:35:52;99448.28;;;17.58;29.84
72024;BME280;59889;50.700;5.440;2024-01-16T07:38:17;99443.41;;;17.56;29.78
72024;BME280;59889;50.700;5.440;2024-01-16T07:40:43;99435.85;;;17.80;29.73
72024;BME280;59889;50.700;5.440;2024-01-16T07:43:08;99441.19;;;17.96;29.73
72024;BME280;59889;50.700;5.440;2024-01-16T07:45:33;99441.61;;;17.75;29.73
72024;BME280;59889;50.700;5.440;2024-01-16T07:47:59;99438.39;;;17.66;29.74
72024;BME280;59889;50.700;5.440;2024-01-16T07:50:24;99446.66;;;17.55;29.57
72024;BME280;59889;50.700;5.440;2024-01-16T07:52:49;99452.61;;;17.49;29.60
72024;BME280;59889;50.700;5.440;2024-01-16T07:55:14;99453.62;;;17.69;29.79
72024;BME280;59889;50.700;5.440;2024-01-16T07:57:40;99458.67;;;17.74;29.80
72024;BME280;59889;50.700;5.440;2024-01-16T08:00:06;99461.68;;;17.54;29.80
72024;BME280;59889;50.700;5.440;2024-01-16T08:02:32;99459.24;;;17.56;29.76
72024;BME280;59889;50.700;5.440;2024-01-16T08:04:56;99457.99;;;17.84;29.69
72024;BME280;59889;50.700;5.440;2024-01-16T08:07:20;99455.01;;;17.74;29.79
72024;BME280;59889;50.700;5.440;2024-01-16T08:09:45;99456.98;;;17.70;29.57
72024;BME280;59889;50.700;5.440;2024-01-16T08:12:11;99462.43;;;17.56;29.71
72024;BME280;59889;50.700;5.440;2024-01-16T08:14:36;99465.52;;;17.89;29.60
72024;BME280;59889;50.700;5.440;2024-01-16T08:17:01;99462.15;;;17.82;29.62
72024;BME280;59889;50.700;5.440;2024-01-16T08:19:26;99459.63;;;17.56;29.64
72024;BME280;59889;50.700;5.440;2024-01-16T08:21:51;99461.10;;;17.91;29.51
72024;BME280;59889;50.700;5.440;2024-01-16T08:24:16;99467.25;;;17.86;29.50
72024;BME280;59889;50.700;5.440;2024-01-16T08:26:42;99469.23;;;17.58;29.54
72024;BME280;59889;50.700;5.440;2024-01-16T08:29:07;99469.38;;;17.65;29.46
72024;BME280;59889;50.700;5.440;2024-01-16T08:31:32;99465.46;;;17.72;29.42
72024;BME280;59889;50.700;5.440;2024-01-16T08:33:58;99460.93;;;17.83;29.58
72024;BME280;59889;50.700;5.440;2024-01-16T08:36:23;99458.29;;;17.44;29.46
72024;BME280;59889;50.700;5.440;2024-01-16T08:38:48;99459.97;;;17.68;29.51
72024;BME280;59889;50.700;5.440;2024-01-16T08:41:13;99460.41;;;17.61;29.62
72024;BME280;59889;50.700;5.440;2024-01-16T08:43:38;99451.66;;;17.64;29.66
72024;BME280;59889;50.700;5.440;2024-01-16T08:46:03;99453.67;;;17.63;29.77
72024;BME280;59889;50.700;5.440;2024-01-16T08:48:28;99455.61;;;17.90;29.81
72024;BME280;59889;50.700;5.440;2024-01-16T08:50:53;99459.61;;;17.98;29.77
72024;BME280;59889;50.700;5.440;2024-01-16T08:53:19;99470.49;;;18.25;29.77
72024;BME280;59889;50.700;5.440;2024-01-16T08:55:44;99465.47;;;17.81;30.01
72024;BME280;59889;50.700;5.440;2024-01-16T08:58:09;99467.26;;;17.84;29.99
72024;BME280;59889;50.700;5.440;2024-01-16T09:00:34;99464.95;;;17.60;30.04
72024;BME280;59889;50.700;5.440;2024-01-16T09:03:00;99467.72;;;17.94;29.96
72024;BME280;59889;50.700;5.440;2024-01-16T09:05:25;99472.68;;;17.83;30.07
72024;BME280;59889;50.700;5.440;2024-01-16T09:07:50;99475.65;;;17.82;30.11
72024;BME280;59889;50.700;5.440;2024-01-16T09:10:15;99475.15;;;17.86;30.20
72024;BME280;59889;50.700;5.440;2024-01-16T09:12:40;99473.01;;;17.82;30.22
72024;BME280;59889;50.700;5.440;2024-01-16T09:15:07;99470.92;;;17.66;30.62
72024;BME280;59889;50.700;5.440;2024-01-16T09:17:31;99467.90;;;17.72;30.42
72024;BME280;59889;50.700;5.440;2024-01-16T09:19:55;99472.31;;;17.73;30.36
72024;BME280;59889;50.700;5.440;2024-01-16T09:22:21;99469.89;;;17.24;30.36
72024;BME280;59889;50.700;5.440;2024-01-16T09:24:46;99464.24;;;17.46;30.34
72024;BME280;59889;50.700;5.440;2024-01-16T09:27:11;99459.39;;;17.52;30.26
72024;BME280;59889;50.700;5.440;2024-01-16T09:29:37;99457.60;;;17.45;30.87
72024;BME280;59889;50.700;5.440;2024-01-16T09:32:02;99452.75;;;17.80;30.36
72024;BME280;59889;50.700;5.440;2024-01-16T09:34:28;99449.10;;;17.84;30.28
72024;BME280;59889;50.700;5.440;2024-01-16T09:36:53;99447.75;;;17.59;30.28
72024;BME280;59889;50.700;5.440;2024-01-16T09:39:18;99442.63;;;17.78;30.30
72024;BME280;59889;50.700;5.440;2024-01-16T09:41:44;99439.32;;;17.88;30.20
72024;BME280;59889;50.700;5.440;2024-01-16T09:44:09;99437.22;;;17.84;30.24
72024;BME280;59889;50.700;5.440;2024-01-16T09:46:37;99433.70;;;17.60;30.22
72024;BME280;59889;50.700;5.440;2024-01-16T09:49:00;99435.91;;;17.89;30.19
72024;BME280;59889;50.700;5.440;2024-01-16T09:51:24;99435.51;;;17.64;30.19
72024;BME280;59889;50.700;5.440;2024-01-16T09:53:49;99431.56;;;17.98;30.10
72024;BME280;59889;50.700;5.440;2024-01-16T09:56:16;99427.10;;;18.01;30.06
72024;BME280;59889;50.700;5.440;2024-01-16T09:58:40;99426.78;;;17.95;30.12
72024;BME280;59889;50.700;5.440;2024-01-16T10:01:05;99425.76;;;17.85;30.23
72024;BME280;59889;50.700;5.440;2024-01-16T10:03:34;99425.16;;;17.65;30.16
72024;BME280;59889;50.700;5.440;2024-01-16T10:05:56;99421.38;;;17.64;30.16
72024;BME280;59889;50.700;5.440;2024-01-16T10:08:21;99422.21;;;17.73;30.10
72024;BME280;59889;50.700;5.440;2024-01-16T10:10:46;99418.78;;;17.52;30.05
72024;BME280;59889;50.700;5.440;2024-01-16T10:13:12;99414.19;;;18.29;29.99
72024;BME280;59889;50.700;5.440;2024-01-16T10:15:36;99414.87;;;17.98;30.08
72024;BME280;59889;50.700;5.440;2024-01-16T10:18:02;99411.87;;;17.72;30.12
72024;BME280;59889;50.700;5.440;2024-01-16T10:20:32;99407.57;;;17.71;30.12
72024;BME280;59889;50.700;5.440;2024-01-16T10:22:53;99402.05;;;18.03;30.02
72024;BME280;59889;50.700;5.440;2024-01-16T10:25:17;99401.73;;;18.02;30.02
72024;BME280;59889;50.700;5.440;2024-01-16T10:27:43;99398.29;;;17.73;30.07
72024;BME280;59889;50.700;5.440;2024-01-16T10:30:08;99396.44;;;18.08;29.97
72024;BME280;59889;50.700;5.440;2024-01-16T10:32:35;99398.24;;;17.74;30.06
72024;BME280;59889;50.700;5.440;2024-01-16T10:35:02;99402.21;;;18.06;29.99
72024;BME280;59889;50.700;5.440;2024-01-16T10:37:23;99399.15;;;18.00;30.04
72024;BME280;59889;50.700;5.440;2024-01-16T10:39:50;99401.89;;;17.98;30.05
72024;BME280;59889;50.700;5.440;2024-01-16T10:42:15;99407.86;;;18.09;29.96
72024;BME280;59889;50.700;5.440;2024-01-16T10:47:10;99405.21;;;17.96;30.06
72024;BME280;59889;50.700;5.440;2024-01-16T10:49:29;99399.59;;;17.44;30.08
72024;BME280;59889;50.700;5.440;2024-01-16T10:51:55;99397.58;;;17.94;30.07
72024;BME280;59889;50.700;5.440;2024-01-16T10:54:21;99400.91;;;17.76;30.03
72024;BME280;59889;50.700;5.440;2024-01-16T10:56:45;99398.19;;;17.74;30.03
72024;BME280;59889;50.700;5.440;2024-01-16T10:59:15;99392.93;;;17.92;30.08
72024;BME280;59889;50.700;5.440;2024-01-16T11:01:35;99394.08;;;17.59;30.18
72024;BME280;59889;50.700;5.440;2024-01-16T11:04:00;99388.66;;;17.98;30.05
72024;BME280;59889;50.700;5.440;2024-01-16T11:06:30;99387.82;;;17.81;29.96
72024;BME280;59889;50.700;5.440;2024-01-16T11:08:51;99394.95;;;18.04;29.99
72024;BME280;59889;50.700;5.440;2024-01-16T11:11:16;99399.60;;;18.03;30.02
72024;BME280;59889;50.700;5.440;2024-01-16T11:13:42;99400.38;;;17.92;30.12
72024;BME280;59889;50.700;5.440;2024-01-16T11:16:05;99398.31;;;17.95;30.08
72024;BME280;59889;50.700;5.440;2024-01-16T11:18:31;99395.53;;;17.79;30.01
72024;BME280;59889;50.700;5.440;2024-01-16T11:20:56;99393.35;;;18.01;30.06
72024;BME280;59889;50.700;5.440;2024-01-16T11:23:21;99391.94;;;17.74;30.05
72024;BME280;59889;50.700;5.440;2024-01-16T11:25:46;99389.80;;;17.80;29.99
72024;BME280;59889;50.700;5.440;2024-01-16T11:28:12;99387.30;;;17.95;30.08
72024;BME280;59889;50.700;5.440;2024-01-16T11:30:36;99385.75;;;17.73;30.09
72024;BME280;59889;50.700;5.440;2024-01-16T11:33:01;99387.18;;;17.91;30.15
72024;BME280;59889;50.700;5.440;2024-01-16T11:35:32;99386.57;;;18.05;29.99
72024;BME280;59889;50.700;5.440;2024-01-16T11:37:52;99379.32;;;17.96;30.04
72024;BME280;59889;50.700;5.440;2024-01-16T11:40:21;99376.47;;;17.72;30.05
72024;BME280;59889;50.700;5.440;2024-01-16T11:42:42;99371.65;;;17.77;29.98
72024;BME280;59889;50.700;5.440;2024-01-16T11:45:07;99366.11;;;18.00;29.98
72024;BME280;59889;50.700;5.440;2024-01-16T11:47:32;99360.76;;;17.74;29.99
72024;BME280;59889;50.700;5.440;2024-01-16T11:54:47;99360.60;;;17.83;29.87
72024;BME280;59889;50.700;5.440;2024-01-16T11:57:26;99361.03;;;17.94;30.01
72024;BME280;59889;50.700;5.440;2024-01-16T11:59:49;99358.15;;;17.70;30.05
72024;BME280;59889;50.700;5.440;2024-01-16T12:02:08;99355.58;;;17.96;30.01
72024;BME280;59889;50.700;5.440;2024-01-16T12:04:28;99352.83;;;18.09;29.89
72024;BME280;59889;50.700;5.440;2024-01-16T12:06:57;99351.33;;;18.05;29.94
72024;BME280;59889;50.700;5.440;2024-01-16T12:09:19;99349.06;;;17.98;29.98
72024;BME280;59889;50.700;5.440;2024-01-16T12:11:44;99349.87;;;17.46;30.02
72024;BME280;59889;50.700;5.440;2024-01-16T12:14:08;99348.87;;;17.88;30.08
72024;BME280;59889;50.700;5.440;2024-01-16T12:16:33;99339.62;;;17.98;29.98
72024;BME280;59889;50.700;5.440;2024-01-16T12:19:05;99331.43;;;17.92;30.03
72024;BME280;59889;50.700;5.440;2024-01-16T12:21:26;99327.13;;;17.72;29.98
72024;BME280;59889;50.700;5.440;2024-01-16T12:23:49;99324.85;;;17.97;29.95
72024;BME280;59889;50.700;5.440;2024-01-16T12:26:19;99318.27;;;17.65;30.02
72024;BME280;59889;50.700;5.440;2024-01-16T12:28:39;99311.80;;;17.80;30.14
72024;BME280;59889;50.700;5.440;2024-01-16T12:31:04;99309.19;;;17.82;30.10
72024;BME280;59889;50.700;5.440;2024-01-16T12:33:29;99306.30;;;17.90;30.02
72024;BME280;59889;50.700;5.440;2024-01-16T12:36:01;99307.82;;;17.53;30.14
72024;BME280;59889;50.700;5.440;2024-01-16T12:38:20;99303.97;;;17.78;30.12
72024;BME280;59889;50.700;5.440;2024-01-16T12:40:47;99299.23;;;17.80;30.11
72024;BME280;59889;50.700;5.440;2024-01-16T12:43:10;99294.42;;;17.80;30.11
72024;BME280;59889;50.700;5.440;2024-01-16T12:45:35;99290.33;;;17.50;30.18
72024;BME280;59889;50.700;5.440;2024-01-16T12:48:00;99288.56;;;17.66;30.25
72024;BME280;59889;50.700;5.440;2024-01-16T12:50:26;99286.79;;;17.47;30.19
72024;BME280;59889;50.700;5.440;2024-01-16T12:52:53;99285.24;;;17.70;30.23
72024;BME280;59889;50.700;5.440;2024-01-16T12:55:16;99284.09;;;17.69;30.24